<?xml version="1.0" encoding="UTF-8" standalone="no" ?>
<gpx xmlns="http://www.topografix.com/GPX/1/1" xmlns:xsi="http://www.w3.org/2001/XMLSchema-instance" xsi:schemaLocation="http://www.topografix.com/GPX/1/1 http://www.topografix.com/GPX/1/1/gpx.xsd" version="1.1" creator="VisuGPX - https://www.visugpx.com">
  <metadata>
    <name>Tour de Chantemerle</name>
    <desc><![CDATA[Tour Chantemerle saint Hélène]]></desc>
  </metadata>
  <wpt lat="45.48074" lon="6.06662">
    <ele>260</ele>
    <name><![CDATA[Parking à la sortie du village]]></name>
  </wpt>
  <wpt lat="45.48142" lon="6.0678">
    <ele>260</ele>
    <name><![CDATA[Pont de bois]]></name>
  </wpt>
  <wpt lat="45.48609" lon="6.06782">
    <ele>302</ele>
    <name><![CDATA[Chemin des Platieres]]></name>
  </wpt>
  <wpt lat="45.48816" lon="6.07068">
    <ele>331</ele>
    <name><![CDATA[ La Chavanne]]></name>
  </wpt>
  <wpt lat="45.49299" lon="6.08048">
    <ele>320</ele>
    <name><![CDATA[Route de Verrens]]></name>
  </wpt>
  <wpt lat="45.49391" lon="6.09188">
    <ele>280</ele>
    <name><![CDATA[Bois]]></name>
  </wpt>
  <wpt lat="45.48351" lon="6.07774">
    <ele>260</ele>
    <name><![CDATA[Parking du lac]]></name>
  </wpt>
  <wpt lat="45.48074" lon="6.06662">
    <ele>260</ele>
    <name><![CDATA[Parking à la sortie du village]]></name>
  </wpt>
  <trk>
    <name><![CDATA[Tour de Chantemerle]]></name>
    <trkseg>
      <trkpt lat="45.48074" lon="6.06662">
        <ele>260</ele>
        <time>2021-04-22T11:01:29+02:00</time>
      </trkpt>
      <trkpt lat="45.48093" lon="6.06698">
        <ele>260</ele>
        <time>2021-04-22T11:01:34+02:00</time>
      </trkpt>
      <trkpt lat="45.48109" lon="6.06729">
        <ele>260</ele>
        <time>2021-04-22T11:01:39+02:00</time>
      </trkpt>
      <trkpt lat="45.48129" lon="6.06752">
        <ele>260</ele>
        <time>2021-04-22T11:01:44+02:00</time>
      </trkpt>
      <trkpt lat="45.48142" lon="6.0678">
        <ele>260</ele>
        <time>2021-04-22T11:01:49+02:00</time>
      </trkpt>
      <trkpt lat="45.48145" lon="6.06795">
        <ele>260</ele>
        <time>2021-04-22T11:01:54+02:00</time>
      </trkpt>
      <trkpt lat="45.48169" lon="6.06756">
        <ele>261</ele>
        <time>2021-04-22T11:01:59+02:00</time>
      </trkpt>
      <trkpt lat="45.48183" lon="6.06737">
        <ele>263</ele>
        <time>2021-04-22T11:02:04+02:00</time>
      </trkpt>
      <trkpt lat="45.48201" lon="6.06731">
        <ele>264</ele>
        <time>2021-04-22T11:02:09+02:00</time>
      </trkpt>
      <trkpt lat="45.48217" lon="6.06739">
        <ele>265</ele>
        <time>2021-04-22T11:02:14+02:00</time>
      </trkpt>
      <trkpt lat="45.48226" lon="6.06707">
        <ele>267</ele>
        <time>2021-04-22T11:02:19+02:00</time>
      </trkpt>
      <trkpt lat="45.4824" lon="6.06694">
        <ele>268</ele>
        <time>2021-04-22T11:02:24+02:00</time>
      </trkpt>
      <trkpt lat="45.48231" lon="6.06673">
        <ele>269</ele>
        <time>2021-04-22T11:02:29+02:00</time>
      </trkpt>
      <trkpt lat="45.4822" lon="6.06658">
        <ele>269</ele>
        <time>2021-04-22T11:02:34+02:00</time>
      </trkpt>
      <trkpt lat="45.48235" lon="6.06638">
        <ele>270</ele>
        <time>2021-04-22T11:02:39+02:00</time>
      </trkpt>
      <trkpt lat="45.48249" lon="6.0663">
        <ele>272</ele>
        <time>2021-04-22T11:02:44+02:00</time>
      </trkpt>
      <trkpt lat="45.48267" lon="6.06623">
        <ele>273</ele>
        <time>2021-04-22T11:02:49+02:00</time>
      </trkpt>
      <trkpt lat="45.48288" lon="6.0661">
        <ele>274</ele>
        <time>2021-04-22T11:02:54+02:00</time>
      </trkpt>
      <trkpt lat="45.48306" lon="6.06591">
        <ele>275</ele>
        <time>2021-04-22T11:02:59+02:00</time>
      </trkpt>
      <trkpt lat="45.48329" lon="6.0657">
        <ele>276</ele>
        <time>2021-04-22T11:03:04+02:00</time>
      </trkpt>
      <trkpt lat="45.48338" lon="6.06553">
        <ele>277</ele>
        <time>2021-04-22T11:03:09+02:00</time>
      </trkpt>
      <trkpt lat="45.48365" lon="6.0651">
        <ele>281</ele>
        <time>2021-04-22T11:03:14+02:00</time>
      </trkpt>
      <trkpt lat="45.48381" lon="6.06501">
        <ele>282</ele>
        <time>2021-04-22T11:03:19+02:00</time>
      </trkpt>
      <trkpt lat="45.48398" lon="6.06499">
        <ele>284</ele>
        <time>2021-04-22T11:03:24+02:00</time>
      </trkpt>
      <trkpt lat="45.48405" lon="6.06508">
        <ele>284</ele>
        <time>2021-04-22T11:03:29+02:00</time>
      </trkpt>
      <trkpt lat="45.48446" lon="6.06531">
        <ele>288</ele>
        <time>2021-04-22T11:03:34+02:00</time>
      </trkpt>
      <trkpt lat="45.48463" lon="6.0655">
        <ele>288</ele>
        <time>2021-04-22T11:03:39+02:00</time>
      </trkpt>
      <trkpt lat="45.48488" lon="6.06568">
        <ele>290</ele>
        <time>2021-04-22T11:03:44+02:00</time>
      </trkpt>
      <trkpt lat="45.48515" lon="6.06589">
        <ele>292</ele>
        <time>2021-04-22T11:03:49+02:00</time>
      </trkpt>
      <trkpt lat="45.48541" lon="6.06613">
        <ele>293</ele>
        <time>2021-04-22T11:03:54+02:00</time>
      </trkpt>
      <trkpt lat="45.48554" lon="6.06626">
        <ele>294</ele>
        <time>2021-04-22T11:03:59+02:00</time>
      </trkpt>
      <trkpt lat="45.48568" lon="6.06666">
        <ele>292</ele>
        <time>2021-04-22T11:04:04+02:00</time>
      </trkpt>
      <trkpt lat="45.48583" lon="6.06722">
        <ele>295</ele>
        <time>2021-04-22T11:04:09+02:00</time>
      </trkpt>
      <trkpt lat="45.48594" lon="6.06754">
        <ele>298</ele>
        <time>2021-04-22T11:04:14+02:00</time>
      </trkpt>
      <trkpt lat="45.48609" lon="6.06782">
        <ele>302</ele>
        <time>2021-04-22T11:04:19+02:00</time>
      </trkpt>
      <trkpt lat="45.48621" lon="6.06795">
        <ele>305</ele>
        <time>2021-04-22T11:04:24+02:00</time>
      </trkpt>
      <trkpt lat="45.48636" lon="6.06832">
        <ele>310</ele>
        <time>2021-04-22T11:04:29+02:00</time>
      </trkpt>
      <trkpt lat="45.48672" lon="6.06887">
        <ele>319</ele>
        <time>2021-04-22T11:04:34+02:00</time>
      </trkpt>
      <trkpt lat="45.48681" lon="6.06902">
        <ele>321</ele>
        <time>2021-04-22T11:04:39+02:00</time>
      </trkpt>
      <trkpt lat="45.48694" lon="6.06919">
        <ele>323</ele>
        <time>2021-04-22T11:04:44+02:00</time>
      </trkpt>
      <trkpt lat="45.48711" lon="6.06935">
        <ele>325</ele>
        <time>2021-04-22T11:04:49+02:00</time>
      </trkpt>
      <trkpt lat="45.48727" lon="6.06954">
        <ele>327</ele>
        <time>2021-04-22T11:04:54+02:00</time>
      </trkpt>
      <trkpt lat="45.48757" lon="6.06992">
        <ele>330</ele>
        <time>2021-04-22T11:04:59+02:00</time>
      </trkpt>
      <trkpt lat="45.4877" lon="6.0701">
        <ele>330</ele>
        <time>2021-04-22T11:05:04+02:00</time>
      </trkpt>
      <trkpt lat="45.48791" lon="6.07031">
        <ele>330</ele>
        <time>2021-04-22T11:05:09+02:00</time>
      </trkpt>
      <trkpt lat="45.48804" lon="6.07053">
        <ele>331</ele>
        <time>2021-04-22T11:05:14+02:00</time>
      </trkpt>
      <trkpt lat="45.48816" lon="6.07068">
        <ele>331</ele>
        <time>2021-04-22T11:05:19+02:00</time>
      </trkpt>
      <trkpt lat="45.48803" lon="6.071">
        <ele>332</ele>
        <time>2021-04-22T11:05:24+02:00</time>
      </trkpt>
      <trkpt lat="45.48782" lon="6.07117">
        <ele>333</ele>
        <time>2021-04-22T11:05:29+02:00</time>
      </trkpt>
      <trkpt lat="45.48759" lon="6.07136">
        <ele>333</ele>
        <time>2021-04-22T11:05:34+02:00</time>
      </trkpt>
      <trkpt lat="45.48739" lon="6.07156">
        <ele>332</ele>
        <time>2021-04-22T11:05:39+02:00</time>
      </trkpt>
      <trkpt lat="45.48723" lon="6.07179">
        <ele>330</ele>
        <time>2021-04-22T11:05:44+02:00</time>
      </trkpt>
      <trkpt lat="45.48717" lon="6.07213">
        <ele>330</ele>
        <time>2021-04-22T11:05:49+02:00</time>
      </trkpt>
      <trkpt lat="45.48711" lon="6.07254">
        <ele>329</ele>
        <time>2021-04-22T11:05:54+02:00</time>
      </trkpt>
      <trkpt lat="45.48714" lon="6.07289">
        <ele>329</ele>
        <time>2021-04-22T11:05:59+02:00</time>
      </trkpt>
      <trkpt lat="45.48739" lon="6.07349">
        <ele>335</ele>
        <time>2021-04-22T11:06:04+02:00</time>
      </trkpt>
      <trkpt lat="45.48759" lon="6.07396">
        <ele>338</ele>
        <time>2021-04-22T11:06:09+02:00</time>
      </trkpt>
      <trkpt lat="45.48792" lon="6.07462">
        <ele>338</ele>
        <time>2021-04-22T11:06:14+02:00</time>
      </trkpt>
      <trkpt lat="45.48837" lon="6.07516">
        <ele>340</ele>
        <time>2021-04-22T11:06:19+02:00</time>
      </trkpt>
      <trkpt lat="45.48873" lon="6.07576">
        <ele>339</ele>
        <time>2021-04-22T11:06:24+02:00</time>
      </trkpt>
      <trkpt lat="45.48903" lon="6.0763">
        <ele>339</ele>
        <time>2021-04-22T11:06:29+02:00</time>
      </trkpt>
      <trkpt lat="45.48927" lon="6.07675">
        <ele>340</ele>
        <time>2021-04-22T11:06:34+02:00</time>
      </trkpt>
      <trkpt lat="45.48958" lon="6.07707">
        <ele>339</ele>
        <time>2021-04-22T11:06:39+02:00</time>
      </trkpt>
      <trkpt lat="45.48974" lon="6.07731">
        <ele>339</ele>
        <time>2021-04-22T11:06:44+02:00</time>
      </trkpt>
      <trkpt lat="45.48988" lon="6.07769">
        <ele>337</ele>
        <time>2021-04-22T11:06:49+02:00</time>
      </trkpt>
      <trkpt lat="45.48997" lon="6.0778">
        <ele>337</ele>
        <time>2021-04-22T11:06:54+02:00</time>
      </trkpt>
      <trkpt lat="45.49016" lon="6.07791">
        <ele>336</ele>
        <time>2021-04-22T11:06:59+02:00</time>
      </trkpt>
      <trkpt lat="45.49036" lon="6.07806">
        <ele>333</ele>
        <time>2021-04-22T11:07:04+02:00</time>
      </trkpt>
      <trkpt lat="45.49048" lon="6.07814">
        <ele>332</ele>
        <time>2021-04-22T11:07:09+02:00</time>
      </trkpt>
      <trkpt lat="45.49072" lon="6.07851">
        <ele>328</ele>
        <time>2021-04-22T11:07:14+02:00</time>
      </trkpt>
      <trkpt lat="45.49087" lon="6.07874">
        <ele>326</ele>
        <time>2021-04-22T11:07:19+02:00</time>
      </trkpt>
      <trkpt lat="45.49119" lon="6.07883">
        <ele>324</ele>
        <time>2021-04-22T11:07:24+02:00</time>
      </trkpt>
      <trkpt lat="45.49146" lon="6.07909">
        <ele>322</ele>
        <time>2021-04-22T11:07:29+02:00</time>
      </trkpt>
      <trkpt lat="45.49164" lon="6.0793">
        <ele>321</ele>
        <time>2021-04-22T11:07:34+02:00</time>
      </trkpt>
      <trkpt lat="45.49194" lon="6.07962">
        <ele>320</ele>
        <time>2021-04-22T11:07:39+02:00</time>
      </trkpt>
      <trkpt lat="45.49215" lon="6.08003">
        <ele>319</ele>
        <time>2021-04-22T11:07:44+02:00</time>
      </trkpt>
      <trkpt lat="45.49239" lon="6.08035">
        <ele>319</ele>
        <time>2021-04-22T11:07:49+02:00</time>
      </trkpt>
      <trkpt lat="45.49257" lon="6.08035">
        <ele>320</ele>
        <time>2021-04-22T11:07:54+02:00</time>
      </trkpt>
      <trkpt lat="45.49285" lon="6.08046">
        <ele>320</ele>
        <time>2021-04-22T11:07:59+02:00</time>
      </trkpt>
      <trkpt lat="45.49299" lon="6.08048">
        <ele>320</ele>
        <time>2021-04-22T11:08:04+02:00</time>
      </trkpt>
      <trkpt lat="45.49288" lon="6.081">
        <ele>319</ele>
        <time>2021-04-22T11:08:09+02:00</time>
      </trkpt>
      <trkpt lat="45.49296" lon="6.08147">
        <ele>319</ele>
        <time>2021-04-22T11:08:14+02:00</time>
      </trkpt>
      <trkpt lat="45.49296" lon="6.08179">
        <ele>319</ele>
        <time>2021-04-22T11:08:19+02:00</time>
      </trkpt>
      <trkpt lat="45.49288" lon="6.08207">
        <ele>319</ele>
        <time>2021-04-22T11:08:24+02:00</time>
      </trkpt>
      <trkpt lat="45.49266" lon="6.08205">
        <ele>319</ele>
        <time>2021-04-22T11:08:29+02:00</time>
      </trkpt>
      <trkpt lat="45.49248" lon="6.08211">
        <ele>319</ele>
        <time>2021-04-22T11:08:34+02:00</time>
      </trkpt>
      <trkpt lat="45.49225" lon="6.08216">
        <ele>318</ele>
        <time>2021-04-22T11:08:39+02:00</time>
      </trkpt>
      <trkpt lat="45.49194" lon="6.08222">
        <ele>318</ele>
        <time>2021-04-22T11:08:44+02:00</time>
      </trkpt>
      <trkpt lat="45.49173" lon="6.08233">
        <ele>318</ele>
        <time>2021-04-22T11:08:49+02:00</time>
      </trkpt>
      <trkpt lat="45.49146" lon="6.08246">
        <ele>319</ele>
        <time>2021-04-22T11:08:54+02:00</time>
      </trkpt>
      <trkpt lat="45.49128" lon="6.08261">
        <ele>319</ele>
        <time>2021-04-22T11:08:59+02:00</time>
      </trkpt>
      <trkpt lat="45.49112" lon="6.08282">
        <ele>319</ele>
        <time>2021-04-22T11:09:04+02:00</time>
      </trkpt>
      <trkpt lat="45.49093" lon="6.08312">
        <ele>320</ele>
        <time>2021-04-22T11:09:09+02:00</time>
      </trkpt>
      <trkpt lat="45.49114" lon="6.08364">
        <ele>320</ele>
        <time>2021-04-22T11:09:14+02:00</time>
      </trkpt>
      <trkpt lat="45.49146" lon="6.08411">
        <ele>320</ele>
        <time>2021-04-22T11:09:19+02:00</time>
      </trkpt>
      <trkpt lat="45.49189" lon="6.08471">
        <ele>320</ele>
        <time>2021-04-22T11:09:24+02:00</time>
      </trkpt>
      <trkpt lat="45.49206" lon="6.08501">
        <ele>320</ele>
        <time>2021-04-22T11:09:29+02:00</time>
      </trkpt>
      <trkpt lat="45.49239" lon="6.08535">
        <ele>320</ele>
        <time>2021-04-22T11:09:34+02:00</time>
      </trkpt>
      <trkpt lat="45.4926" lon="6.08576">
        <ele>320</ele>
        <time>2021-04-22T11:09:39+02:00</time>
      </trkpt>
      <trkpt lat="45.49281" lon="6.08606">
        <ele>320</ele>
        <time>2021-04-22T11:09:44+02:00</time>
      </trkpt>
      <trkpt lat="45.49275" lon="6.08632">
        <ele>320</ele>
        <time>2021-04-22T11:09:49+02:00</time>
      </trkpt>
      <trkpt lat="45.49252" lon="6.08632">
        <ele>320</ele>
        <time>2021-04-22T11:09:54+02:00</time>
      </trkpt>
      <trkpt lat="45.49221" lon="6.08619">
        <ele>319</ele>
        <time>2021-04-22T11:09:59+02:00</time>
      </trkpt>
      <trkpt lat="45.49194" lon="6.08606">
        <ele>318</ele>
        <time>2021-04-22T11:10:04+02:00</time>
      </trkpt>
      <trkpt lat="45.49174" lon="6.08602">
        <ele>318</ele>
        <time>2021-04-22T11:10:09+02:00</time>
      </trkpt>
      <trkpt lat="45.49156" lon="6.0861">
        <ele>315</ele>
        <time>2021-04-22T11:10:14+02:00</time>
      </trkpt>
      <trkpt lat="45.49141" lon="6.08619">
        <ele>312</ele>
        <time>2021-04-22T11:10:19+02:00</time>
      </trkpt>
      <trkpt lat="45.49134" lon="6.08638">
        <ele>309</ele>
        <time>2021-04-22T11:10:24+02:00</time>
      </trkpt>
      <trkpt lat="45.49146" lon="6.08673">
        <ele>308</ele>
        <time>2021-04-22T11:10:29+02:00</time>
      </trkpt>
      <trkpt lat="45.49168" lon="6.08694">
        <ele>310</ele>
        <time>2021-04-22T11:10:34+02:00</time>
      </trkpt>
      <trkpt lat="45.49186" lon="6.08718">
        <ele>310</ele>
        <time>2021-04-22T11:10:39+02:00</time>
      </trkpt>
      <trkpt lat="45.49209" lon="6.08733">
        <ele>312</ele>
        <time>2021-04-22T11:10:44+02:00</time>
      </trkpt>
      <trkpt lat="45.49225" lon="6.08776">
        <ele>311</ele>
        <time>2021-04-22T11:10:49+02:00</time>
      </trkpt>
      <trkpt lat="45.49236" lon="6.08806">
        <ele>310</ele>
        <time>2021-04-22T11:10:54+02:00</time>
      </trkpt>
      <trkpt lat="45.49245" lon="6.08821">
        <ele>311</ele>
        <time>2021-04-22T11:10:59+02:00</time>
      </trkpt>
      <trkpt lat="45.49254" lon="6.08855">
        <ele>309</ele>
        <time>2021-04-22T11:11:04+02:00</time>
      </trkpt>
      <trkpt lat="45.49251" lon="6.08872">
        <ele>306</ele>
        <time>2021-04-22T11:11:09+02:00</time>
      </trkpt>
      <trkpt lat="45.49233" lon="6.08836">
        <ele>307</ele>
        <time>2021-04-22T11:11:14+02:00</time>
      </trkpt>
      <trkpt lat="45.49216" lon="6.08836">
        <ele>303</ele>
        <time>2021-04-22T11:11:19+02:00</time>
      </trkpt>
      <trkpt lat="45.49212" lon="6.08855">
        <ele>299</ele>
        <time>2021-04-22T11:11:24+02:00</time>
      </trkpt>
      <trkpt lat="45.49224" lon="6.08889">
        <ele>298</ele>
        <time>2021-04-22T11:11:29+02:00</time>
      </trkpt>
      <trkpt lat="45.49231" lon="6.08937">
        <ele>294</ele>
        <time>2021-04-22T11:11:34+02:00</time>
      </trkpt>
      <trkpt lat="45.49245" lon="6.08956">
        <ele>293</ele>
        <time>2021-04-22T11:11:39+02:00</time>
      </trkpt>
      <trkpt lat="45.49273" lon="6.08999">
        <ele>291</ele>
        <time>2021-04-22T11:11:44+02:00</time>
      </trkpt>
      <trkpt lat="45.49304" lon="6.09037">
        <ele>291</ele>
        <time>2021-04-22T11:11:49+02:00</time>
      </trkpt>
      <trkpt lat="45.49329" lon="6.09074">
        <ele>287</ele>
        <time>2021-04-22T11:11:54+02:00</time>
      </trkpt>
      <trkpt lat="45.49344" lon="6.09106">
        <ele>285</ele>
        <time>2021-04-22T11:11:59+02:00</time>
      </trkpt>
      <trkpt lat="45.49365" lon="6.09151">
        <ele>282</ele>
        <time>2021-04-22T11:12:04+02:00</time>
      </trkpt>
      <trkpt lat="45.49391" lon="6.09188">
        <ele>280</ele>
        <time>2021-04-22T11:12:09+02:00</time>
      </trkpt>
      <trkpt lat="45.49397" lon="6.092">
        <ele>280</ele>
        <time>2021-04-22T11:12:14+02:00</time>
      </trkpt>
      <trkpt lat="45.49361" lon="6.09241">
        <ele>280</ele>
        <time>2021-04-22T11:12:19+02:00</time>
      </trkpt>
      <trkpt lat="45.49349" lon="6.09258">
        <ele>280</ele>
        <time>2021-04-22T11:12:24+02:00</time>
      </trkpt>
      <trkpt lat="45.49332" lon="6.092">
        <ele>280</ele>
        <time>2021-04-22T11:12:29+02:00</time>
      </trkpt>
      <trkpt lat="45.49319" lon="6.09179">
        <ele>280</ele>
        <time>2021-04-22T11:12:34+02:00</time>
      </trkpt>
      <trkpt lat="45.49287" lon="6.0913">
        <ele>281</ele>
        <time>2021-04-22T11:12:39+02:00</time>
      </trkpt>
      <trkpt lat="45.49246" lon="6.09076">
        <ele>281</ele>
        <time>2021-04-22T11:12:44+02:00</time>
      </trkpt>
      <trkpt lat="45.49212" lon="6.09035">
        <ele>282</ele>
        <time>2021-04-22T11:12:49+02:00</time>
      </trkpt>
      <trkpt lat="45.49182" lon="6.08988">
        <ele>282</ele>
        <time>2021-04-22T11:12:54+02:00</time>
      </trkpt>
      <trkpt lat="45.49144" lon="6.08943">
        <ele>280</ele>
        <time>2021-04-22T11:12:59+02:00</time>
      </trkpt>
      <trkpt lat="45.4912" lon="6.08915">
        <ele>281</ele>
        <time>2021-04-22T11:13:04+02:00</time>
      </trkpt>
      <trkpt lat="45.49094" lon="6.08887">
        <ele>281</ele>
        <time>2021-04-22T11:13:09+02:00</time>
      </trkpt>
      <trkpt lat="45.49063" lon="6.08849">
        <ele>280</ele>
        <time>2021-04-22T11:13:14+02:00</time>
      </trkpt>
      <trkpt lat="45.49034" lon="6.08814">
        <ele>281</ele>
        <time>2021-04-22T11:13:19+02:00</time>
      </trkpt>
      <trkpt lat="45.49007" lon="6.08765">
        <ele>280</ele>
        <time>2021-04-22T11:13:24+02:00</time>
      </trkpt>
      <trkpt lat="45.4897" lon="6.08737">
        <ele>279</ele>
        <time>2021-04-22T11:13:29+02:00</time>
      </trkpt>
      <trkpt lat="45.48932" lon="6.08707">
        <ele>278</ele>
        <time>2021-04-22T11:13:34+02:00</time>
      </trkpt>
      <trkpt lat="45.48885" lon="6.08628">
        <ele>275</ele>
        <time>2021-04-22T11:13:39+02:00</time>
      </trkpt>
      <trkpt lat="45.48846" lon="6.08576">
        <ele>272</ele>
        <time>2021-04-22T11:13:44+02:00</time>
      </trkpt>
      <trkpt lat="45.48806" lon="6.0854">
        <ele>269</ele>
        <time>2021-04-22T11:13:49+02:00</time>
      </trkpt>
      <trkpt lat="45.48757" lon="6.08494">
        <ele>265</ele>
        <time>2021-04-22T11:13:54+02:00</time>
      </trkpt>
      <trkpt lat="45.4873" lon="6.08452">
        <ele>266</ele>
        <time>2021-04-22T11:13:59+02:00</time>
      </trkpt>
      <trkpt lat="45.48696" lon="6.08415">
        <ele>264</ele>
        <time>2021-04-22T11:14:04+02:00</time>
      </trkpt>
      <trkpt lat="45.48655" lon="6.08357">
        <ele>262</ele>
        <time>2021-04-22T11:14:09+02:00</time>
      </trkpt>
      <trkpt lat="45.48619" lon="6.08295">
        <ele>264</ele>
        <time>2021-04-22T11:14:14+02:00</time>
      </trkpt>
      <trkpt lat="45.48589" lon="6.08228">
        <ele>265</ele>
        <time>2021-04-22T11:14:19+02:00</time>
      </trkpt>
      <trkpt lat="45.48568" lon="6.08185">
        <ele>266</ele>
        <time>2021-04-22T11:14:24+02:00</time>
      </trkpt>
      <trkpt lat="45.48557" lon="6.08151">
        <ele>266</ele>
        <time>2021-04-22T11:14:29+02:00</time>
      </trkpt>
      <trkpt lat="45.4855" lon="6.08113">
        <ele>267</ele>
        <time>2021-04-22T11:14:34+02:00</time>
      </trkpt>
      <trkpt lat="45.48557" lon="6.08095">
        <ele>269</ele>
        <time>2021-04-22T11:14:39+02:00</time>
      </trkpt>
      <trkpt lat="45.48574" lon="6.08065">
        <ele>272</ele>
        <time>2021-04-22T11:14:44+02:00</time>
      </trkpt>
      <trkpt lat="45.48597" lon="6.08035">
        <ele>275</ele>
        <time>2021-04-22T11:14:49+02:00</time>
      </trkpt>
      <trkpt lat="45.48607" lon="6.08022">
        <ele>276</ele>
        <time>2021-04-22T11:14:54+02:00</time>
      </trkpt>
      <trkpt lat="45.48584" lon="6.08007">
        <ele>275</ele>
        <time>2021-04-22T11:14:59+02:00</time>
      </trkpt>
      <trkpt lat="45.48566" lon="6.07975">
        <ele>274</ele>
        <time>2021-04-22T11:15:04+02:00</time>
      </trkpt>
      <trkpt lat="45.48542" lon="6.07937">
        <ele>273</ele>
        <time>2021-04-22T11:15:09+02:00</time>
      </trkpt>
      <trkpt lat="45.48511" lon="6.0796">
        <ele>269</ele>
        <time>2021-04-22T11:15:14+02:00</time>
      </trkpt>
      <trkpt lat="45.48475" lon="6.07962">
        <ele>265</ele>
        <time>2021-04-22T11:15:19+02:00</time>
      </trkpt>
      <trkpt lat="45.48449" lon="6.07971">
        <ele>263</ele>
        <time>2021-04-22T11:15:24+02:00</time>
      </trkpt>
      <trkpt lat="45.48416" lon="6.07964">
        <ele>260</ele>
        <time>2021-04-22T11:15:29+02:00</time>
      </trkpt>
      <trkpt lat="45.4839" lon="6.07898">
        <ele>259</ele>
        <time>2021-04-22T11:15:34+02:00</time>
      </trkpt>
      <trkpt lat="45.48369" lon="6.0784">
        <ele>259</ele>
        <time>2021-04-22T11:15:39+02:00</time>
      </trkpt>
      <trkpt lat="45.48351" lon="6.07774">
        <ele>260</ele>
        <time>2021-04-22T11:15:44+02:00</time>
      </trkpt>
      <trkpt lat="45.48342" lon="6.07724">
        <ele>259</ele>
        <time>2021-04-22T11:15:49+02:00</time>
      </trkpt>
      <trkpt lat="45.48318" lon="6.07681">
        <ele>258</ele>
        <time>2021-04-22T11:15:54+02:00</time>
      </trkpt>
      <trkpt lat="45.48303" lon="6.07651">
        <ele>257</ele>
        <time>2021-04-22T11:15:59+02:00</time>
      </trkpt>
      <trkpt lat="45.48293" lon="6.0761">
        <ele>257</ele>
        <time>2021-04-22T11:16:04+02:00</time>
      </trkpt>
      <trkpt lat="45.48276" lon="6.07565">
        <ele>257</ele>
        <time>2021-04-22T11:16:09+02:00</time>
      </trkpt>
      <trkpt lat="45.48261" lon="6.07548">
        <ele>257</ele>
        <time>2021-04-22T11:16:14+02:00</time>
      </trkpt>
      <trkpt lat="45.48247" lon="6.07535">
        <ele>257</ele>
        <time>2021-04-22T11:16:19+02:00</time>
      </trkpt>
      <trkpt lat="45.48223" lon="6.07518">
        <ele>256</ele>
        <time>2021-04-22T11:16:24+02:00</time>
      </trkpt>
      <trkpt lat="45.48208" lon="6.07499">
        <ele>256</ele>
        <time>2021-04-22T11:16:29+02:00</time>
      </trkpt>
      <trkpt lat="45.48193" lon="6.07467">
        <ele>256</ele>
        <time>2021-04-22T11:16:34+02:00</time>
      </trkpt>
      <trkpt lat="45.48175" lon="6.07441">
        <ele>256</ele>
        <time>2021-04-22T11:16:39+02:00</time>
      </trkpt>
      <trkpt lat="45.48148" lon="6.07402">
        <ele>256</ele>
        <time>2021-04-22T11:16:44+02:00</time>
      </trkpt>
      <trkpt lat="45.48138" lon="6.07392">
        <ele>256</ele>
        <time>2021-04-22T11:16:49+02:00</time>
      </trkpt>
      <trkpt lat="45.48115" lon="6.07379">
        <ele>256</ele>
        <time>2021-04-22T11:16:54+02:00</time>
      </trkpt>
      <trkpt lat="45.4809" lon="6.07398">
        <ele>255</ele>
        <time>2021-04-22T11:16:59+02:00</time>
      </trkpt>
      <trkpt lat="45.48114" lon="6.07377">
        <ele>256</ele>
        <time>2021-04-22T11:17:04+02:00</time>
      </trkpt>
      <trkpt lat="45.48139" lon="6.07362">
        <ele>257</ele>
        <time>2021-04-22T11:17:09+02:00</time>
      </trkpt>
      <trkpt lat="45.48144" lon="6.0731">
        <ele>257</ele>
        <time>2021-04-22T11:17:14+02:00</time>
      </trkpt>
      <trkpt lat="45.48144" lon="6.07282">
        <ele>257</ele>
        <time>2021-04-22T11:17:19+02:00</time>
      </trkpt>
      <trkpt lat="45.48144" lon="6.07241">
        <ele>257</ele>
        <time>2021-04-22T11:17:24+02:00</time>
      </trkpt>
      <trkpt lat="45.48141" lon="6.07211">
        <ele>257</ele>
        <time>2021-04-22T11:17:29+02:00</time>
      </trkpt>
      <trkpt lat="45.48132" lon="6.07168">
        <ele>257</ele>
        <time>2021-04-22T11:17:34+02:00</time>
      </trkpt>
      <trkpt lat="45.4812" lon="6.07143">
        <ele>257</ele>
        <time>2021-04-22T11:17:39+02:00</time>
      </trkpt>
      <trkpt lat="45.48106" lon="6.07108">
        <ele>256</ele>
        <time>2021-04-22T11:17:44+02:00</time>
      </trkpt>
      <trkpt lat="45.48099" lon="6.0707">
        <ele>257</ele>
        <time>2021-04-22T11:17:49+02:00</time>
      </trkpt>
      <trkpt lat="45.4809" lon="6.07053">
        <ele>257</ele>
        <time>2021-04-22T11:17:54+02:00</time>
      </trkpt>
      <trkpt lat="45.48108" lon="6.07048">
        <ele>257</ele>
        <time>2021-04-22T11:17:59+02:00</time>
      </trkpt>
      <trkpt lat="45.48139" lon="6.07031">
        <ele>258</ele>
        <time>2021-04-22T11:18:04+02:00</time>
      </trkpt>
      <trkpt lat="45.48148" lon="6.07005">
        <ele>258</ele>
        <time>2021-04-22T11:18:09+02:00</time>
      </trkpt>
      <trkpt lat="45.48153" lon="6.06971">
        <ele>259</ele>
        <time>2021-04-22T11:18:14+02:00</time>
      </trkpt>
      <trkpt lat="45.48162" lon="6.06935">
        <ele>259</ele>
        <time>2021-04-22T11:18:19+02:00</time>
      </trkpt>
      <trkpt lat="45.48181" lon="6.06907">
        <ele>259</ele>
        <time>2021-04-22T11:18:24+02:00</time>
      </trkpt>
      <trkpt lat="45.48199" lon="6.06887">
        <ele>260</ele>
        <time>2021-04-22T11:18:29+02:00</time>
      </trkpt>
      <trkpt lat="45.48178" lon="6.06855">
        <ele>260</ele>
        <time>2021-04-22T11:18:34+02:00</time>
      </trkpt>
      <trkpt lat="45.48162" lon="6.0681">
        <ele>260</ele>
        <time>2021-04-22T11:18:39+02:00</time>
      </trkpt>
      <trkpt lat="45.48148" lon="6.06774">
        <ele>260</ele>
        <time>2021-04-22T11:18:44+02:00</time>
      </trkpt>
      <trkpt lat="45.48124" lon="6.06741">
        <ele>260</ele>
        <time>2021-04-22T11:18:49+02:00</time>
      </trkpt>
      <trkpt lat="45.48088" lon="6.06701">
        <ele>260</ele>
        <time>2021-04-22T11:18:54+02:00</time>
      </trkpt>
      <trkpt lat="45.48074" lon="6.06662">
        <ele>260</ele>
        <time>2021-04-22T11:18:59+02:00</time>
      </trkpt>
    </trkseg>
  </trk>
</gpx>